Monte Toledo — CQRA — position and weather

sailwx.info

Track history (hours):
 
Tides and Currents Weather Stations Pressure Air Temp Water Temp Dewpoint Dewpoint Depression Visibility Wind Speed Wind Dir Waves Ship Positions

Monte Toledo

Last reported at 2016-Sep-11 08:17 UTC. Time now 2016-Sep-29 08:29 UTC.
Position N 37°04' W 006°53'.
Warning: this ship's position is 18 days out of date.

Length 274 m; draft 10 m.

Type: Tanker. MMSI: 255740000.

Date/timePositionNaut miles runAvg speedWind from/ knotsBaromVisibWave heightAir tempDewpointWater temp
2016-Sep-11 08:17N 37°04' W 006°53'92 2.4
2016-Sep-09 18:33N 35°59' W 005°31'9 9.3
2016-Sep-09 17:34N 36°06' W 005°23'4 0.1
2016-Sep-08 15:25N 36°09' W 005°25'0 0.2
2016-Sep-08 14:28N 36°09' W 005°25'0 0.1
2016-Sep-08 13:22N 36°09' W 005°25'0 0.1
2016-Sep-08 12:31N 36°09' W 005°25'0 0.1
2016-Sep-08 11:28N 36°09' W 005°25'0 0.0
2016-Sep-08 09:31N 36°09' W 005°25'0 0.0
2016-Sep-08 03:22N 36°09' W 005°25'0 0.1
2016-Sep-08 02:19N 36°09' W 005°25'0 0.1
2016-Sep-08 01:13N 36°09' W 005°25'0 0.1
2016-Sep-08 00:31N 36°09' W 005°25'0 0.2
2016-Sep-07 23:31N 36°09' W 005°25'0 0.1
2016-Sep-07 22:31N 36°09' W 005°25'0 0.0
2016-Sep-07 21:28N 36°09' W 005°25'0 0.0
2016-Sep-07 20:31N 36°09' W 005°25'0 0.1
2016-Sep-07 19:31N 36°09' W 005°25'0 0.1
2016-Sep-07 18:31N 36°09' W 005°25'0 0.0
2016-Sep-07 17:32N 36°09' W 005°25'3 2.6
2016-Sep-07 16:33N 36°07' W 005°23'6 5.9
2016-Sep-07 15:33N 36°03' W 005°18'1111.0
2016-Sep-07 14:33N 35°57' W 005°30'1412.5
2016-Sep-07 13:27N 35°54' W 005°46'1212.9
2016-Sep-07 12:32N 35°53' W 006°01'1713.2
2016-Sep-07 11:16N 35°51' W 006°22'911.7
2016-Sep-07 10:28N 35°46' W 006°31'1213.0
2016-Sep-07 09:33N 35°37' W 006°41'1413.7
2016-Sep-07 08:33N 35°29' W 006°54'1312.7
2016-Sep-07 07:34N 35°21' W 007°07'7 7.2
2016-Sep-07 06:33N 35°15' W 007°11'2813.5
2016-Sep-07 04:31N 34°58' W 007°38'1313.7
2016-Sep-07 03:33N 34°49' W 007°50'1713.4
2016-Sep-07 02:17N 34°38' W 008°06'2413.5
2016-Sep-07 00:33N 34°22' W 008°26'2913.3
2016-Sep-06 22:23N 33°58' W 008°46'1313.0
2016-Sep-06 21:24N 33°47' W 008°55'1313.0
2016-Sep-06 20:23N 33°36' W 009°03'1612.5
2016-Sep-06 19:06N 33°23' W 009°15'912.4
2016-Sep-06 18:21N 33°16' W 009°21'1112.7
2016-Sep-06 17:30N 33°07' W 009°29'1213.0
2016-Sep-06 16:33N 32°57' W 009°37'1413.4
2016-Sep-06 15:32N 32°46' W 009°46'1313.0
2016-Sep-06 14:33N 32°34' W 009°54'1312.6
2016-Sep-06 13:33N 32°25' W 010°03'1312.7
2016-Sep-06 12:33N 32°14' W 010°12'1613.1
2016-Sep-06 11:20N 32°01' W 010°23'1613.3
2016-Sep-06 10:06N 31°48' W 010°34'3813.4
2016-Sep-06 07:16N 31°17' W 011°00'1413.6
2016-Sep-06 06:16N 31°06' W 011°09'2313.4
2016-Sep-06 04:33N 30°47' W 011°25'1313.4
2016-Sep-06 03:33N 30°36' W 011°33'1313.2
2016-Sep-06 02:33N 30°25' W 011°42'1313.0
2016-Sep-06 01:33N 30°15' W 011°51'1312.8
2016-Sep-06 00:33N 30°04' W 011°60'2612.9
2016-Sep-05 22:34N 29°43' W 012°16'1412.7
2016-Sep-05 21:27N 29°31' W 012°24'1212.6
2016-Sep-05 20:32N 29°22' W 012°33'1312.7
2016-Sep-05 19:31N 29°12' W 012°42'1212.9
2016-Sep-05 18:34N 29°02' W 012°50'1313.3
2016-Sep-05 17:34N 28°50' W 012°58'1313.3
2016-Sep-05 16:33N 28°40' W 013°07'1413.4
2016-Sep-05 15:30N 28°28' W 013°16'1413.3
2016-Sep-05 14:28N 28°17' W 013°25'1213.1
2016-Sep-05 13:32N 28°07' W 013°33'1313.2
2016-Sep-05 12:33N 27°57' W 013°42'1313.2
2016-Sep-05 11:33N 27°46' W 013°52'1313.1
2016-Sep-05 10:32N 27°36' W 014°01'1312.6
2016-Sep-05 09:32N 27°27' W 014°11'1312.7
2016-Sep-05 08:30N 27°16' W 014°20'  
Track history (hours):
 
Tides and Currents Weather Stations Pressure Air Temp Water Temp Dewpoint Dewpoint Depression Visibility Wind Speed Wind Dir Waves Ship Positions

Monte Toledo

Last reported at 2016-Sep-11 08:17 UTC. Time now 2016-Sep-29 08:29 UTC.
Position N 37°04' W 006°53'.
Warning: this ship's position is 18 days out of date.

Length 274 m; draft 10 m.

Type: Tanker. MMSI: 255740000.

Date/timePositionNaut miles runAvg speedWind from/ knotsBaromVisibWave heightAir tempDewpointWater temp
2016-Sep-11 08:17N 37°04' W 006°53'92 2.4
2016-Sep-09 18:33N 35°59' W 005°31'9 9.3
2016-Sep-09 17:34N 36°06' W 005°23'4 0.1
2016-Sep-08 15:25N 36°09' W 005°25'0 0.2
2016-Sep-08 14:28N 36°09' W 005°25'0 0.1
2016-Sep-08 13:22N 36°09' W 005°25'0 0.1
2016-Sep-08 12:31N 36°09' W 005°25'0 0.1
2016-Sep-08 11:28N 36°09' W 005°25'0 0.0
2016-Sep-08 09:31N 36°09' W 005°25'0 0.0
2016-Sep-08 03:22N 36°09' W 005°25'0 0.1
2016-Sep-08 02:19N 36°09' W 005°25'0 0.1
2016-Sep-08 01:13N 36°09' W 005°25'0 0.1
2016-Sep-08 00:31N 36°09' W 005°25'0 0.2
2016-Sep-07 23:31N 36°09' W 005°25'0 0.1
2016-Sep-07 22:31N 36°09' W 005°25'0 0.0
2016-Sep-07 21:28N 36°09' W 005°25'0 0.0
2016-Sep-07 20:31N 36°09' W 005°25'0 0.1
2016-Sep-07 19:31N 36°09' W 005°25'0 0.1
2016-Sep-07 18:31N 36°09' W 005°25'0 0.0
2016-Sep-07 17:32N 36°09' W 005°25'3 2.6
2016-Sep-07 16:33N 36°07' W 005°23'6 5.9
2016-Sep-07 15:33N 36°03' W 005°18'1111.0
2016-Sep-07 14:33N 35°57' W 005°30'1412.5
2016-Sep-07 13:27N 35°54' W 005°46'1212.9
2016-Sep-07 12:32N 35°53' W 006°01'1713.2
2016-Sep-07 11:16N 35°51' W 006°22'911.7
2016-Sep-07 10:28N 35°46' W 006°31'1213.0
2016-Sep-07 09:33N 35°37' W 006°41'1413.7
2016-Sep-07 08:33N 35°29' W 006°54'1312.7
2016-Sep-07 07:34N 35°21' W 007°07'7 7.2
2016-Sep-07 06:33N 35°15' W 007°11'2813.5
2016-Sep-07 04:31N 34°58' W 007°38'1313.7
2016-Sep-07 03:33N 34°49' W 007°50'1713.4
2016-Sep-07 02:17N 34°38' W 008°06'2413.5
2016-Sep-07 00:33N 34°22' W 008°26'2913.3
2016-Sep-06 22:23N 33°58' W 008°46'1313.0
2016-Sep-06 21:24N 33°47' W 008°55'1313.0
2016-Sep-06 20:23N 33°36' W 009°03'1612.5
2016-Sep-06 19:06N 33°23' W 009°15'912.4
2016-Sep-06 18:21N 33°16' W 009°21'1112.7
2016-Sep-06 17:30N 33°07' W 009°29'1213.0
2016-Sep-06 16:33N 32°57' W 009°37'1413.4
2016-Sep-06 15:32N 32°46' W 009°46'1313.0
2016-Sep-06 14:33N 32°34' W 009°54'1312.6
2016-Sep-06 13:33N 32°25' W 010°03'1312.7
2016-Sep-06 12:33N 32°14' W 010°12'1613.1
2016-Sep-06 11:20N 32°01' W 010°23'1613.3
2016-Sep-06 10:06N 31°48' W 010°34'3813.4
2016-Sep-06 07:16N 31°17' W 011°00'1413.6
2016-Sep-06 06:16N 31°06' W 011°09'2313.4
2016-Sep-06 04:33N 30°47' W 011°25'1313.4
2016-Sep-06 03:33N 30°36' W 011°33'1313.2
2016-Sep-06 02:33N 30°25' W 011°42'1313.0
2016-Sep-06 01:33N 30°15' W 011°51'1312.8
2016-Sep-06 00:33N 30°04' W 011°60'2612.9
2016-Sep-05 22:34N 29°43' W 012°16'1412.7
2016-Sep-05 21:27N 29°31' W 012°24'1212.6
2016-Sep-05 20:32N 29°22' W 012°33'1312.7
2016-Sep-05 19:31N 29°12' W 012°42'1212.9
2016-Sep-05 18:34N 29°02' W 012°50'1313.3
2016-Sep-05 17:34N 28°50' W 012°58'1313.3
2016-Sep-05 16:33N 28°40' W 013°07'1413.4
2016-Sep-05 15:30N 28°28' W 013°16'1413.3
2016-Sep-05 14:28N 28°17' W 013°25'1213.1
2016-Sep-05 13:32N 28°07' W 013°33'1313.2
2016-Sep-05 12:33N 27°57' W 013°42'1313.2
2016-Sep-05 11:33N 27°46' W 013°52'1313.1
2016-Sep-05 10:32N 27°36' W 014°01'1312.6
2016-Sep-05 09:32N 27°27' W 014°11'1312.7
2016-Sep-05 08:30N 27°16' W 014°20'  

Dump ship's entire track history